logo



Minimumtemperatur heute -3.9     Maximumtemperatur heute -1.1
Datum Zeit
MEZ
Lufttemperatur
C
Windrichtung
Grad
Wind Mittel
Km/h
Wind Min
Km/h
Wind Max
Km/h
rel. Feuchte
%
2020-04-02 07:20:00 -1.2 146 0.3 0.0 1.8 78
2020-04-02 07:15:00 -1.3 116 0.2 0.0 1.2 78
2020-04-02 07:10:00 -1.4 136 0.3 0.5 1.7 79
2020-04-02 07:05:00 -1.5 136 0.2 0.0 1.3 79
2020-04-02 07:00:00 -1.6 109 0.1 0.0 0.9 80
2020-04-02 06:55:00 -1.9 90 0.1 0.0 0.7 81
2020-04-02 06:50:00 -2.2 94 0.2 0.0 2.4 82
2020-04-02 06:45:00 -2.3 91 0.1 0.0 1.0 84
2020-04-02 06:40:00 -2.7 78 0.1 0.0 0.7 85
2020-04-02 06:35:00 -3.0 80 0.0 0.0 0.4 85
2020-04-02 06:30:00 -3.3 101 0.0 0.0 0.4 86
2020-04-02 06:25:00 -3.4 101 0.1 0.0 1.0 86
2020-04-02 06:20:00 -3.5 108 0.2 0.4 1.0 86
2020-04-02 06:15:00 -3.7 122 0.2 0.4 1.1 87
2020-04-02 06:10:00 -3.9 134 0.1 0.3 0.7 87
2020-04-02 06:05:00 -3.9 105 0.1 0.0 0.6 86
2020-04-02 06:00:00 -3.8 91 0.1 0.0 0.4 86
2020-04-02 05:55:00 -3.8 89 0.0 0.0 0.2 86
2020-04-02 05:50:00 -3.8 89 0.0 0.0 0.2 86
2020-04-02 05:45:00 -3.8 104 0.0 0.0 0.0 86
2020-04-02 05:40:00 -3.8 104 0.0 0.0 0.3 86
2020-04-02 05:35:00 -3.7 104 0.1 0.1 0.8 86
2020-04-02 05:30:00 -3.8 104 0.2 0.4 0.8 86
2020-04-02 05:25:00 -3.7 104 0.1 0.2 0.5 86
2020-04-02 05:20:00 -3.6 104 0.1 0.2 0.4 86
2020-04-02 05:15:00 -3.6 100 0.0 0.0 0.3 85
2020-04-02 05:10:00 -3.4 100 0.0 0.0 0.3 85
2020-04-02 05:05:00 -3.5 105 0.0 0.0 0.4 85
2020-04-02 05:00:00 -3.5 106 0.2 0.2 1.0 85
2020-04-02 04:55:00 -3.5 107 0.2 0.3 1.0 85
2020-04-02 04:50:00 -3.6 99 0.1 0.2 0.9 85
2020-04-02 04:45:00 -3.6 99 0.1 0.0 0.6 85
2020-04-02 04:40:00 -3.4 103 0.1 0.0 0.5 84
2020-04-02 04:35:00 -3.4 110 0.1 0.1 0.6 84
2020-04-02 04:30:00 -3.4 125 0.2 0.5 1.0 84
2020-04-02 04:25:00 -3.5 130 0.3 0.9 1.5 84
2020-04-02 04:20:00 -3.4 133 0.2 0.3 1.5 83
2020-04-02 04:15:00 -3.2 103 0.1 0.1 0.6 82
2020-04-02 04:10:00 -3.0 99 0.1 0.2 0.7 82
2020-04-02 04:05:00 -2.9 100 0.2 0.6 1.0 82
2020-04-02 04:00:00 -2.8 105 0.2 0.3 0.8 82
2020-04-02 03:55:00 -2.8 112 0.1 0.2 0.4 82
2020-04-02 03:50:00 -2.7 112 0.0 0.0 0.2 82
2020-04-02 03:45:00 -2.8 112 0.0 0.0 0.0 82
2020-04-02 03:40:00 -3.0 112 0.0 0.0 0.0 83
2020-04-02 03:35:00 -3.0 112 0.0 0.0 0.0 82
2020-04-02 03:30:00 -3.0 105 0.0 0.0 0.1 82
2020-04-02 03:25:00 -2.9 104 0.1 0.0 0.6 82
2020-04-02 03:20:00 -2.9 105 0.1 0.2 0.7 81
2020-04-02 03:15:00 -2.8 103 0.0 0.0 0.5 81
2020-04-02 03:10:00 -2.8 103 0.2 0.7 1.0 81
2020-04-02 03:05:00 -2.7 99 0.1 0.1 0.8 81
2020-04-02 03:00:00 -2.7 99 0.1 0.2 0.6 81
2020-04-02 02:55:00 -2.7 99 0.1 0.1 0.9 81
2020-04-02 02:50:00 -2.7 108 0.1 0.0 0.7 81
2020-04-02 02:45:00 -2.7 98 0.2 0.4 1.1 81
2020-04-02 02:40:00 -2.5 109 0.1 0.0 0.7 80
2020-04-02 02:35:00 -2.5 63 0.0 0.0 0.1 80
2020-04-02 02:30:00 -2.5 57 0.1 0.0 0.5 81
2020-04-02 02:25:00 -2.4 95 0.0 0.0 0.3 82
2020-04-02 02:20:00 -2.5 107 0.0 0.0 0.5 81
2020-04-02 02:15:00 -2.3 107 0.0 0.0 0.3 80
2020-04-02 02:10:00 -2.2 107 0.1 0.2 0.8 80
2020-04-02 02:05:00 -2.2 103 0.2 0.0 1.3 80
2020-04-02 02:00:00 -2.2 102 0.1 0.0 1.0 80
2020-04-02 01:55:00 -2.3 107 0.1 0.0 0.6 81
2020-04-02 01:50:00 -2.2 93 0.0 0.0 0.5 80
2020-04-02 01:45:00 -2.1 93 0.1 0.0 1.7 79
2020-04-02 01:40:00 -2.0 97 0.4 1.0 1.9 78
2020-04-02 01:35:00 -2.1 93 0.3 0.5 1.7 78
2020-04-02 01:30:00 -2.0 101 0.2 0.0 1.0 78
2020-04-02 01:25:00 -1.7 144 0.1 0.0 0.5 78
2020-04-02 01:20:00 -1.6 151 0.0 0.0 0.0 77
2020-04-02 01:15:00 -1.6 159 0.0 0.0 0.2 77
2020-04-02 01:10:00 -1.8 145 0.0 0.0 0.0 77
2020-04-02 01:05:00 -1.9 145 0.0 0.0 0.0 78
2020-04-02 01:00:00 -1.8 89 0.0 0.0 0.5 77
2020-04-02 00:55:00 -1.8 89 0.1 0.0 0.6 78
2020-04-02 00:50:00 -1.7 98 0.3 0.6 1.4 79
2020-04-02 00:45:00 -1.7 100 0.2 0.3 1.4 78
2020-04-02 00:40:00 -1.5 84 0.1 0.2 0.6 77
2020-04-02 00:35:00 -1.5 89 0.0 0.0 0.3 77
2020-04-02 00:30:00 -1.4 89 0.0 0.0 0.2 78
2020-04-02 00:25:00 -1.2 129 0.0 0.0 0.0 78
2020-04-02 00:20:00 -1.3 129 0.0 0.0 0.0 77
2020-04-02 00:15:00 -1.2 129 0.0 0.0 0.0 77
2020-04-02 00:10:00 -1.2 107 0.0 0.0 0.0 77
2020-04-02 00:05:00 -1.1 107 0.0 0.0 0.2 77
www.zamg.ac.at

klagenfurt@zamg.ac.at